createdAt,value
2023-04-16T00:02:16.631Z,19.50
2023-04-16T00:04:44.067Z,19.98
2023-04-16T00:07:11.674Z,21.05
2023-04-16T00:09:38.959Z,24.00
2023-04-16T00:12:06.943Z,24.10
2023-04-16T00:14:34.285Z,21.67
2023-04-16T00:17:01.837Z,21.38
2023-04-16T00:19:29.276Z,24.20
2023-04-16T00:21:56.779Z,22.75
2023-04-16T00:24:23.991Z,23.45
2023-04-16T00:26:51.556Z,25.60
2023-04-16T00:29:18.816Z,21.35
2023-04-16T00:31:46.404Z,24.00
2023-04-16T00:34:13.603Z,20.98
2023-04-16T00:36:41.040Z,24.92
2023-04-16T00:39:08.585Z,22.17
2023-04-16T00:41:37.845Z,26.67
2023-04-16T00:44:05.083Z,25.00
2023-04-16T00:46:33.055Z,32.65
2023-04-16T00:49:01.423Z,26.35
2023-04-16T00:51:29.184Z,28.92
2023-04-16T00:53:57.689Z,32.78
2023-04-16T00:56:25.683Z,27.20
2023-04-16T00:58:54.467Z,32.78
2023-04-16T01:01:22.116Z,26.70
2023-04-16T01:03:50.081Z,29.52
2023-04-16T01:06:18.804Z,29.55
2023-04-16T01:08:47.672Z,27.00
2023-04-16T01:11:15.976Z,27.20
2023-04-16T01:13:43.215Z,28.50
2023-04-16T01:16:12.151Z,30.92
2023-04-16T01:18:39.923Z,28.73
2023-04-16T01:21:07.941Z,34.72
2023-04-16T01:23:35.172Z,30.33
2023-04-16T01:26:03.459Z,28.25
2023-04-16T01:28:30.937Z,27.92
2023-04-16T01:30:58.576Z,28.95
2023-04-16T01:33:57.898Z,27.23
2023-04-16T01:36:26.920Z,26.42
2023-04-16T01:38:55.048Z,33.47
2023-04-16T01:41:22.646Z,29.30
2023-04-16T01:43:49.884Z,32.05
2023-04-16T01:46:34.769Z,33.97
2023-04-16T01:49:03.049Z,31.10
2023-04-16T01:51:30.717Z,29.58
2023-04-16T01:53:58.446Z,33.50
2023-04-16T01:56:26.457Z,33.03
2023-04-16T01:58:53.969Z,33.40
2023-04-16T02:01:22.195Z,32.55
2023-04-16T02:03:49.912Z,33.60
2023-04-16T02:06:17.566Z,31.83
2023-04-16T02:08:45.952Z,34.22
2023-04-16T02:11:15.896Z,36.63
2023-04-16T02:13:43.621Z,38.65
2023-04-16T02:16:11.248Z,36.58
2023-04-16T02:18:47.022Z,38.55
2023-04-16T02:21:16.351Z,37.00
2023-04-16T02:23:47.521Z,43.75
2023-04-16T02:26:15.025Z,39.55
2023-04-16T02:28:42.822Z,39.17
2023-04-16T02:31:12.360Z,38.92
2023-04-16T02:33:44.350Z,39.13
2023-04-16T02:36:12.879Z,44.60
2023-04-16T02:38:40.199Z,40.88
2023-04-16T02:41:07.857Z,39.63
2023-04-16T02:43:35.301Z,39.90
2023-04-16T02:46:03.258Z,43.35
2023-04-16T02:48:30.471Z,41.08
2023-04-16T02:50:57.947Z,41.88
2023-04-16T02:53:25.400Z,39.55
2023-04-16T02:55:54.201Z,39.70
2023-04-16T02:58:23.939Z,40.45
2023-04-16T03:00:54.861Z,43.40
2023-04-16T03:03:22.522Z,44.33
2023-04-16T03:05:50.110Z,40.83
2023-04-16T03:08:17.414Z,36.63
2023-04-16T03:10:44.879Z,36.95
2023-04-16T03:13:12.059Z,39.72
2023-04-16T03:15:39.738Z,35.30
2023-04-16T03:18:07.020Z,34.97
2023-04-16T03:20:34.667Z,32.75
2023-04-16T03:23:01.958Z,33.30
2023-04-16T03:25:29.451Z,36.10
2023-04-16T03:27:56.805Z,37.17
2023-04-16T03:30:24.610Z,36.65
2023-04-16T03:32:52.097Z,36.42
2023-04-16T03:35:19.764Z,32.13
2023-04-16T03:37:47.208Z,32.95
2023-04-16T03:40:15.381Z,36.70
2023-04-16T03:42:43.084Z,32.58
2023-04-16T03:45:11.580Z,36.17
2023-04-16T03:47:39.935Z,35.80
2023-04-16T03:50:08.891Z,34.83
2023-04-16T03:52:36.802Z,36.55
2023-04-16T03:55:04.581Z,34.58
2023-04-16T03:57:32.426Z,38.50
2023-04-16T04:00:09.364Z,36.45
2023-04-16T04:02:50.094Z,40.22
2023-04-16T04:05:20.238Z,35.92
2023-04-16T04:07:48.390Z,37.78
2023-04-16T04:10:16.509Z,38.03
2023-04-16T04:12:44.127Z,39.63
2023-04-16T04:15:11.927Z,37.63
2023-04-16T04:17:39.226Z,36.40
2023-04-16T04:20:07.343Z,36.47
2023-04-16T04:22:34.598Z,41.25
2023-04-16T04:25:02.223Z,37.97
2023-04-16T04:27:32.147Z,37.85
2023-04-16T04:29:59.773Z,35.95
2023-04-16T04:32:28.079Z,36.60
2023-04-16T04:34:55.924Z,37.78
2023-04-16T04:37:23.179Z,39.63
2023-04-16T04:39:51.062Z,44.33
2023-04-16T04:42:19.071Z,47.10
2023-04-16T04:44:47.357Z,38.45
2023-04-16T04:47:15.435Z,38.17
2023-04-16T04:49:42.970Z,36.80
2023-04-16T04:52:10.304Z,38.83
2023-04-16T04:54:41.506Z,36.38
2023-04-16T04:57:09.016Z,37.35
2023-04-16T04:59:36.812Z,37.70
2023-04-16T05:02:04.211Z,34.67
2023-04-16T05:04:31.764Z,34.45
2023-04-16T05:06:58.948Z,36.42
2023-04-16T05:09:26.440Z,38.22
2023-04-16T05:11:53.796Z,33.45
2023-04-16T05:14:21.389Z,33.47
2023-04-16T05:16:48.682Z,36.60
2023-04-16T05:19:17.168Z,35.30
2023-04-16T05:21:44.421Z,36.00
2023-04-16T05:24:15.084Z,36.13
2023-04-16T05:26:42.401Z,34.45
2023-04-16T05:29:10.052Z,35.88
2023-04-16T05:31:37.495Z,35.95
2023-04-16T05:34:04.946Z,38.35
2023-04-16T05:36:32.179Z,39.75
2023-04-16T05:38:59.642Z,37.90
2023-04-16T05:41:26.808Z,38.83
2023-04-16T05:43:55.015Z,33.75
2023-04-16T05:46:22.301Z,35.85
2023-04-16T05:48:49.776Z,38.72
2023-04-16T05:51:17.028Z,35.20
2023-04-16T05:53:44.753Z,32.60
2023-04-16T05:56:12.105Z,40.13
2023-04-16T05:58:39.640Z,34.35
2023-04-16T06:01:07.945Z,34.75
2023-04-16T06:03:35.821Z,35.90
2023-04-16T06:06:03.203Z,34.75
2023-04-16T06:08:30.899Z,37.50
2023-04-16T06:10:58.215Z,32.60
2023-04-16T06:13:25.916Z,34.00
2023-04-16T06:15:53.150Z,30.95
2023-04-16T06:18:20.663Z,31.63
2023-04-16T06:20:47.984Z,29.40
2023-04-16T06:23:15.969Z,29.05
2023-04-16T06:25:43.131Z,31.92
2023-04-16T06:28:10.607Z,26.40
2023-04-16T06:30:39.080Z,29.15
2023-04-16T06:33:06.664Z,26.30
2023-04-16T06:35:33.856Z,27.25
2023-04-16T06:38:01.404Z,26.85
2023-04-16T06:40:28.691Z,30.77
2023-04-16T06:42:56.353Z,25.25
2023-04-16T06:45:23.622Z,27.95
2023-04-16T06:47:52.367Z,30.75
2023-04-16T06:50:19.718Z,27.25
2023-04-16T06:52:47.309Z,29.23
2023-04-16T06:55:14.501Z,27.65
2023-04-16T06:57:42.037Z,29.98
2023-04-16T07:00:09.984Z,35.15
2023-04-16T07:02:37.811Z,32.40
2023-04-16T07:05:05.798Z,30.02
2023-04-16T07:07:33.497Z,31.27
2023-04-16T07:10:00.841Z,27.08
2023-04-16T07:12:28.492Z,27.40
2023-04-16T07:14:55.831Z,27.75
2023-04-16T07:17:23.290Z,30.38
2023-04-16T07:19:52.196Z,28.95
2023-04-16T07:22:20.406Z,30.90
2023-04-16T07:24:47.644Z,30.75
2023-04-16T07:27:15.476Z,30.88
2023-04-16T07:29:42.827Z,37.10
2023-04-16T07:32:10.540Z,40.45
2023-04-16T07:34:38.186Z,37.42
2023-04-16T07:37:05.868Z,38.42
2023-04-16T07:39:33.230Z,37.05
2023-04-16T07:42:01.005Z,41.42
2023-04-16T07:44:28.241Z,31.50
2023-04-16T07:46:55.959Z,33.60
2023-04-16T07:49:23.284Z,33.45
2023-04-16T07:51:50.879Z,32.85
2023-04-16T07:54:18.171Z,33.00
2023-04-16T07:56:45.782Z,34.08
2023-04-16T07:59:21.863Z,29.17
2023-04-16T08:01:53.323Z,32.25
2023-04-16T08:04:25.483Z,32.45
2023-04-16T08:06:56.166Z,33.72
2023-04-16T08:09:27.334Z,32.13
2023-04-16T08:11:55.072Z,28.30
2023-04-16T08:14:22.283Z,24.20
2023-04-16T08:16:49.971Z,21.75
2023-04-16T08:19:17.520Z,24.50
2023-04-16T08:21:45.445Z,23.73
2023-04-16T08:24:12.803Z,28.27
2023-04-16T08:26:40.503Z,27.55
2023-04-16T08:29:07.984Z,25.67
2023-04-16T08:31:35.972Z,29.13
2023-04-16T08:34:03.254Z,25.85
2023-04-16T08:36:31.344Z,30.75
2023-04-16T08:38:58.745Z,25.75
2023-04-16T08:41:27.868Z,23.52
2023-04-16T08:43:56.852Z,24.60
2023-04-16T08:46:26.828Z,30.65
2023-04-16T08:48:58.282Z,25.60
2023-04-16T08:51:27.377Z,21.70
2023-04-16T08:53:59.959Z,22.45
2023-04-16T08:56:28.026Z,20.27
2023-04-16T08:58:56.290Z,18.73
2023-04-16T09:01:26.666Z,18.48
2023-04-16T09:03:54.955Z,17.52
2023-04-16T09:06:23.174Z,19.27
2023-04-16T09:08:50.884Z,15.68
2023-04-16T09:11:18.874Z,17.02
2023-04-16T09:13:47.149Z,15.93
2023-04-16T09:16:15.834Z,20.70
2023-04-16T09:18:43.786Z,16.45
2023-04-16T09:21:11.919Z,17.77
2023-04-16T09:23:40.189Z,15.48
2023-04-16T09:26:08.148Z,14.50
2023-04-16T09:28:44.700Z,13.40
2023-04-16T09:31:16.329Z,14.57
2023-04-16T09:33:45.094Z,15.00
2023-04-16T09:36:13.027Z,18.10
2023-04-16T09:38:50.275Z,18.73
2023-04-16T09:41:18.485Z,17.60
2023-04-16T09:43:56.873Z,15.75
2023-04-16T09:46:31.064Z,15.75
2023-04-16T09:48:59.230Z,17.77
2023-04-16T09:51:28.386Z,20.15
2023-04-16T09:53:57.337Z,15.60
2023-04-16T09:56:30.397Z,16.40
2023-04-16T09:58:58.565Z,20.77
2023-04-16T10:01:26.676Z,15.60
2023-04-16T10:03:57.935Z,14.85
2023-04-16T10:06:27.247Z,18.42
2023-04-16T10:08:57.988Z,16.52
2023-04-16T10:11:26.312Z,19.48
2023-04-16T10:13:54.303Z,18.33
2023-04-16T10:16:23.191Z,19.05
2023-04-16T10:18:51.044Z,17.27
2023-04-16T10:21:19.552Z,16.50
2023-04-16T10:23:49.607Z,18.75
2023-04-16T10:26:18.725Z,21.42
2023-04-16T10:28:46.455Z,16.55
2023-04-16T10:31:14.754Z,15.63
2023-04-16T10:33:42.989Z,17.10
2023-04-16T10:36:12.931Z,18.50
2023-04-16T10:38:44.870Z,21.23
2023-04-16T10:43:44.926Z,26.02
2023-04-16T10:46:22.829Z,17.55
2023-04-16T10:48:53.699Z,21.52
2023-04-16T10:51:35.759Z,19.00
2023-04-16T10:54:19.458Z,18.27
2023-04-16T10:56:47.673Z,21.70
2023-04-16T10:59:18.709Z,20.95
2023-04-16T11:01:48.639Z,19.07
2023-04-16T11:04:22.187Z,21.33
2023-04-16T11:07:09.490Z,19.73
2023-04-16T11:09:56.164Z,18.10
2023-04-16T11:12:29.129Z,21.77
2023-04-16T11:15:00.669Z,16.33
2023-04-16T11:17:30.451Z,18.30
2023-04-16T11:19:58.432Z,15.93
2023-04-16T11:22:27.050Z,16.40
2023-04-16T11:24:56.531Z,15.65
2023-04-16T11:27:24.837Z,16.98
2023-04-16T11:29:59.748Z,15.05
2023-04-16T11:32:27.761Z,15.30
2023-04-16T11:34:55.098Z,16.50
2023-04-16T11:37:35.316Z,14.20
2023-04-16T11:40:12.689Z,18.55
2023-04-16T11:42:41.492Z,16.90
2023-04-16T11:45:10.568Z,15.43
2023-04-16T11:47:52.174Z,16.48
2023-04-16T11:50:22.536Z,16.02
2023-04-16T11:52:51.920Z,14.23
2023-04-16T11:55:20.599Z,13.00
2023-04-16T11:57:48.659Z,11.55
2023-04-16T12:00:16.513Z,14.93
2023-04-16T12:02:51.349Z,20.80
2023-04-16T12:05:34.601Z,15.02
2023-04-16T12:08:03.634Z,14.80
2023-04-16T12:10:32.081Z,15.05
2023-04-16T12:13:16.147Z,14.80
2023-04-16T12:15:53.910Z,14.88
2023-04-16T12:18:23.278Z,15.73
2023-04-16T12:20:51.380Z,17.45
2023-04-16T12:23:25.503Z,16.10
2023-04-16T12:25:53.401Z,20.20
2023-04-16T12:28:27.767Z,15.80
2023-04-16T12:30:55.485Z,18.95
2023-04-16T12:33:23.590Z,34.20
2023-04-16T12:35:51.228Z,17.25
2023-04-16T12:38:19.438Z,17.20
2023-04-16T12:40:47.027Z,13.07
2023-04-16T12:43:15.071Z,13.85
2023-04-16T12:45:42.787Z,13.43
2023-04-16T12:48:10.982Z,12.30
2023-04-16T12:50:39.758Z,11.43
2023-04-16T12:53:07.416Z,11.82
2023-04-16T12:55:34.916Z,11.48
2023-04-16T12:58:02.565Z,14.05
2023-04-16T13:00:29.795Z,17.45
2023-04-16T13:02:57.385Z,12.80
2023-04-16T13:05:24.741Z,9.60
2023-04-16T13:07:52.254Z,10.15
2023-04-16T13:10:21.552Z,9.60
2023-04-16T13:12:49.312Z,11.07
2023-04-16T13:15:16.559Z,8.93
2023-04-16T13:17:44.186Z,12.75
2023-04-16T13:20:11.582Z,10.32
2023-04-16T13:22:39.371Z,9.65
2023-04-16T13:25:07.358Z,13.23
2023-04-16T13:27:34.930Z,13.05
2023-04-16T13:30:02.612Z,14.65
2023-04-16T13:32:31.316Z,8.20
2023-04-16T13:34:58.886Z,9.70
2023-04-16T13:37:26.698Z,9.00
2023-04-16T13:39:53.898Z,10.38
2023-04-16T13:42:22.171Z,11.35
2023-04-16T13:44:53.202Z,11.73
2023-04-16T13:47:21.350Z,12.23
2023-04-16T13:49:49.376Z,12.30
2023-04-16T13:52:16.904Z,9.95
2023-04-16T13:54:44.219Z,10.23
2023-04-16T13:57:20.249Z,10.90
2023-04-16T13:59:47.716Z,41.70
2023-04-16T14:02:15.617Z,61.65
2023-04-16T14:04:42.887Z,12.50
2023-04-16T14:07:12.096Z,16.48
2023-04-16T14:09:39.717Z,9.07
2023-04-16T14:12:07.876Z,12.27
2023-04-16T14:14:35.995Z,11.07
2023-04-16T14:17:04.227Z,10.43
2023-04-16T14:19:31.479Z,13.27
2023-04-16T14:21:59.025Z,9.23
2023-04-16T14:24:26.350Z,12.00
2023-04-16T14:26:53.805Z,11.73
2023-04-16T14:29:21.197Z,7.90
2023-04-16T14:31:50.453Z,28.23
2023-04-16T14:34:17.820Z,10.65
2023-04-16T14:36:45.658Z,10.35
2023-04-16T14:39:13.283Z,10.68
2023-04-16T14:41:41.557Z,9.98
2023-04-16T14:44:09.180Z,8.70
2023-04-16T14:46:38.559Z,9.18
2023-04-16T14:49:06.418Z,10.52
2023-04-16T14:51:34.025Z,10.15
2023-04-16T14:54:01.522Z,10.55
2023-04-16T14:56:29.100Z,9.77
2023-04-16T14:58:56.471Z,8.98
2023-04-16T15:01:24.456Z,10.75
2023-04-16T15:03:52.810Z,16.65
2023-04-16T15:06:20.534Z,33.53
2023-04-16T15:08:48.051Z,11.25
2023-04-16T15:11:15.828Z,11.95
2023-04-16T15:13:43.098Z,11.30
2023-04-16T15:16:10.601Z,16.70
2023-04-16T15:18:38.033Z,12.85
2023-04-16T15:21:05.824Z,12.10
2023-04-16T15:23:33.141Z,13.60
2023-04-16T15:26:00.836Z,11.30
2023-04-16T15:28:28.159Z,12.30
2023-04-16T15:30:56.425Z,9.40
2023-04-16T15:33:23.877Z,10.88
2023-04-16T15:35:51.726Z,14.27
2023-04-16T15:38:21.539Z,10.60
2023-04-16T15:40:49.093Z,15.85
2023-04-16T15:43:16.661Z,15.55
2023-04-16T15:45:44.184Z,14.63
2023-04-16T15:48:11.497Z,14.98
2023-04-16T15:50:39.288Z,11.82
2023-04-16T15:53:06.519Z,11.63
2023-04-16T15:55:34.886Z,10.07
2023-04-16T15:58:03.218Z,13.57
2023-04-16T16:00:31.035Z,11.23
2023-04-16T16:02:58.886Z,13.27
2023-04-16T16:05:27.273Z,11.73
2023-04-16T16:07:54.618Z,13.57
2023-04-16T16:10:22.869Z,14.63
2023-04-16T16:12:50.348Z,21.98
2023-04-16T16:15:17.962Z,13.27
2023-04-16T16:17:45.230Z,14.52
2023-04-16T16:20:13.434Z,12.10
2023-04-16T16:22:41.875Z,10.43
2023-04-16T16:25:10.344Z,9.23
2023-04-16T16:27:37.807Z,8.70
2023-04-16T16:30:07.400Z,17.98
2023-04-16T16:32:34.985Z,10.00
2023-04-16T16:35:02.956Z,13.85
2023-04-16T16:37:30.378Z,23.60
2023-04-16T16:39:57.989Z,11.93
2023-04-16T16:42:26.673Z,13.98
2023-04-16T16:44:56.765Z,12.50
2023-04-16T16:47:25.352Z,14.07
2023-04-16T16:49:54.776Z,13.45
2023-04-16T16:52:26.153Z,13.50
2023-04-16T16:54:56.661Z,13.25
2023-04-16T16:57:24.864Z,22.25
2023-04-16T16:59:54.438Z,13.68
2023-04-16T17:02:23.277Z,14.80
2023-04-16T17:04:52.827Z,17.15
2023-04-16T17:07:21.002Z,13.75
2023-04-16T17:09:49.193Z,14.23
2023-04-16T17:12:16.532Z,13.10
2023-04-16T17:14:44.116Z,16.45
2023-04-16T17:17:11.764Z,12.25
2023-04-16T17:19:39.396Z,11.70
2023-04-16T17:22:06.751Z,11.38
2023-04-16T17:24:34.335Z,15.63
2023-04-16T17:27:02.248Z,15.15
2023-04-16T17:29:30.171Z,18.15
2023-04-16T17:31:57.818Z,21.15
2023-04-16T17:34:25.491Z,18.42
2023-04-16T17:36:52.794Z,18.55
2023-04-16T17:39:21.031Z,16.98
2023-04-16T17:41:54.241Z,21.33
2023-04-16T17:44:23.204Z,24.42
2023-04-16T17:46:50.522Z,23.20
2023-04-16T17:49:18.040Z,17.42
2023-04-16T17:51:45.606Z,21.00
2023-04-16T17:54:13.248Z,18.92
2023-04-16T17:56:40.932Z,26.00
2023-04-16T17:59:08.524Z,19.30
2023-04-16T18:01:36.109Z,24.63
2023-04-16T18:04:04.080Z,19.88
2023-04-16T18:06:31.784Z,20.45
2023-04-16T18:08:59.404Z,34.50
2023-04-16T18:11:28.006Z,35.72
2023-04-16T18:13:56.466Z,32.47
2023-04-16T18:16:24.048Z,42.35
2023-04-16T18:18:51.874Z,37.47
2023-04-16T18:21:19.180Z,29.60
2023-04-16T18:23:47.058Z,32.67
2023-04-16T18:26:17.831Z,35.28
2023-04-16T18:28:47.876Z,45.97
2023-04-16T18:31:15.553Z,59.28
2023-04-16T18:36:13.595Z,36.92
2023-04-16T18:38:52.943Z,67.95
2023-04-16T18:41:27.149Z,59.03
2023-04-16T18:43:54.700Z,38.83
2023-04-16T18:46:22.078Z,33.72
2023-04-16T18:48:49.703Z,35.58
2023-04-16T18:51:17.274Z,29.58
2023-04-16T18:53:45.796Z,31.85
2023-04-16T18:56:13.312Z,32.63
2023-04-16T18:58:41.121Z,30.55
2023-04-16T19:01:11.423Z,31.20
2023-04-16T19:03:39.277Z,30.90
2023-04-16T19:06:06.891Z,33.50
2023-04-16T19:08:34.766Z,29.92
2023-04-16T19:11:02.155Z,38.28
2023-04-16T19:13:30.552Z,32.55
2023-04-16T19:15:59.950Z,29.45
2023-04-16T19:18:28.093Z,30.83
2023-04-16T19:21:01.584Z,32.63
2023-04-16T19:23:29.553Z,32.50
2023-04-16T19:25:57.184Z,26.83
2023-04-16T19:28:25.512Z,28.65
2023-04-16T19:30:54.026Z,26.65
2023-04-16T19:33:21.628Z,28.08
2023-04-16T19:35:49.020Z,26.60
2023-04-16T19:38:16.952Z,26.60
2023-04-16T19:40:46.677Z,25.63
2023-04-16T19:43:14.801Z,23.48
2023-04-16T19:45:46.356Z,28.08
2023-04-16T19:48:14.491Z,25.40
2023-04-16T19:50:42.702Z,25.85
2023-04-16T19:53:11.765Z,28.65
2023-04-16T19:55:40.959Z,28.55
2023-04-16T19:58:09.152Z,25.08
2023-04-16T20:00:37.997Z,29.67
2023-04-16T20:03:06.062Z,29.42
2023-04-16T20:05:33.432Z,31.05
2023-04-16T20:08:01.089Z,28.50
2023-04-16T20:10:29.468Z,33.97
2023-04-16T20:12:57.055Z,34.38
2023-04-16T20:15:24.346Z,29.52
2023-04-16T20:17:55.446Z,28.73
2023-04-16T20:20:23.766Z,27.63
2023-04-16T20:22:51.570Z,31.73
2023-04-16T20:25:19.704Z,30.45
2023-04-16T20:27:47.690Z,27.30
2023-04-16T20:30:15.257Z,30.48
2023-04-16T20:32:42.818Z,30.30
2023-04-16T20:35:11.525Z,28.45
2023-04-16T20:37:39.787Z,29.40
2023-04-16T20:40:08.973Z,28.60
2023-04-16T20:42:36.505Z,35.53
2023-04-16T20:45:03.980Z,29.52
2023-04-16T20:47:31.564Z,30.23
2023-04-16T20:50:01.933Z,36.38
2023-04-16T20:52:29.534Z,30.05
2023-04-16T20:54:56.803Z,31.92
2023-04-16T20:57:24.389Z,29.10
2023-04-16T20:59:51.712Z,33.28
2023-04-16T21:02:20.336Z,32.17
2023-04-16T21:04:47.788Z,31.20
2023-04-16T21:07:15.649Z,31.85
2023-04-16T21:09:42.912Z,30.45
2023-04-16T21:12:10.571Z,32.92
2023-04-16T21:14:37.911Z,32.67
2023-04-16T21:17:05.566Z,31.83
2023-04-16T21:19:32.848Z,31.33
2023-04-16T21:22:02.533Z,35.33
2023-04-16T21:24:31.433Z,34.28
2023-04-16T21:26:58.969Z,36.78
2023-04-16T21:29:26.332Z,35.85
2023-04-16T21:31:54.416Z,33.95
2023-04-16T21:34:21.772Z,37.25
2023-04-16T21:36:49.447Z,36.20
2023-04-16T21:39:17.796Z,37.25
2023-04-16T21:41:45.681Z,38.53
2023-04-16T21:44:13.159Z,38.63
2023-04-16T21:46:41.025Z,35.22
2023-04-16T21:49:08.738Z,43.50
2023-04-16T21:51:37.204Z,41.08
2023-04-16T21:54:05.605Z,35.95
2023-04-16T21:56:33.277Z,40.25
2023-04-16T21:59:01.274Z,38.75
2023-04-16T22:01:29.050Z,47.03
2023-04-16T22:11:11.413Z,49.00
2023-04-16T22:13:42.445Z,46.42
2023-04-16T22:16:11.772Z,44.78
2023-04-16T22:18:41.022Z,51.25
2023-04-16T22:21:08.293Z,44.85
2023-04-16T22:23:36.025Z,55.15
2023-04-16T22:26:04.104Z,52.80
2023-04-16T22:28:31.722Z,55.25
2023-04-16T22:30:59.007Z,55.30
2023-04-16T22:33:29.684Z,53.67
2023-04-16T22:35:57.063Z,54.10
2023-04-16T22:38:24.594Z,56.15
2023-04-16T22:40:51.867Z,51.85
2023-04-16T22:43:19.307Z,60.88
2023-04-16T22:45:46.578Z,48.92
2023-04-16T22:48:14.160Z,51.65
2023-04-16T22:50:48.411Z,46.85
2023-04-16T22:53:16.170Z,52.17
2023-04-16T22:55:43.468Z,47.65
2023-04-16T22:58:11.039Z,45.10
2023-04-16T23:00:38.239Z,45.83
2023-04-16T23:03:05.941Z,49.70
2023-04-16T23:05:33.836Z,44.83
2023-04-16T23:08:01.772Z,46.50
2023-04-16T23:10:28.979Z,48.22
2023-04-16T23:12:56.507Z,41.53
2023-04-16T23:15:23.683Z,46.20
2023-04-16T23:17:51.231Z,44.38
2023-04-16T23:20:18.564Z,43.97
2023-04-16T23:22:46.744Z,51.10
2023-04-16T23:25:14.900Z,43.35
2023-04-16T23:27:42.352Z,43.17
2023-04-16T23:30:09.899Z,47.50
2023-04-16T23:32:37.737Z,42.90
2023-04-16T23:35:05.692Z,41.33
2023-04-16T23:37:33.207Z,47.22
2023-04-16T23:40:00.530Z,40.95
2023-04-16T23:42:27.989Z,41.85
2023-04-16T23:44:55.505Z,40.63
2023-04-16T23:47:23.515Z,40.00
2023-04-16T23:49:50.891Z,37.80
2023-04-16T23:52:18.395Z,36.10
2023-04-16T23:54:45.614Z,34.50
2023-04-16T23:57:13.189Z,35.10
2023-04-16T23:59:40.507Z,34.42
